sensor_id;sensor_type;location;lat;lon;timestamp;temperature;humidity
15450;DHT22;7826;49.784;9.934;2023-07-08T00:01:19;18.50;1.00
15450;DHT22;7826;49.784;9.934;2023-07-08T00:03:46;18.40;1.00
15450;DHT22;7826;49.784;9.934;2023-07-08T00:06:25;18.40;1.00
15450;DHT22;7826;49.784;9.934;2023-07-08T00:08:52;18.30;1.00
15450;DHT22;7826;49.784;9.934;2023-07-08T00:11:19;18.30;1.00
15450;DHT22;7826;49.784;9.934;2023-07-08T00:13:45;18.30;1.00
15450;DHT22;7826;49.784;9.934;2023-07-08T00:16:14;18.30;1.00
15450;DHT22;7826;49.784;9.934;2023-07-08T00:18:41;18.30;1.00
15450;DHT22;7826;49.784;9.934;2023-07-08T00:21:12;18.20;1.00
15450;DHT22;7826;49.784;9.934;2023-07-08T00:23:46;18.20;1.00
15450;DHT22;7826;49.784;9.934;2023-07-08T00:26:25;18.20;1.00
15450;DHT22;7826;49.784;9.934;2023-07-08T00:28:53;18.10;1.00
15450;DHT22;7826;49.784;9.934;2023-07-08T00:31:20;18.10;1.00
15450;DHT22;7826;49.784;9.934;2023-07-08T00:33:50;18.10;1.00
15450;DHT22;7826;49.784;9.934;2023-07-08T00:36:17;18.00;1.00
15450;DHT22;7826;49.784;9.934;2023-07-08T00:38:44;18.00;1.00
15450;DHT22;7826;49.784;9.934;2023-07-08T00:41:35;17.90;1.00
15450;DHT22;7826;49.784;9.934;2023-07-08T00:44:02;17.90;34.80
15450;DHT22;7826;49.784;9.934;2023-07-08T00:51:39;17.80;99.90
15450;DHT22;7826;49.784;9.934;2023-07-08T00:54:17;17.80;99.90
15450;DHT22;7826;49.784;9.934;2023-07-08T00:56:54;17.80;99.90
15450;DHT22;7826;49.784;9.934;2023-07-08T00:59:36;17.80;96.10
15450;DHT22;7826;49.784;9.934;2023-07-08T01:02:06;17.80;99.90
15450;DHT22;7826;49.784;9.934;2023-07-08T01:05:28;17.80;99.90
15450;DHT22;7826;49.784;9.934;2023-07-08T01:07:30;17.70;1.00
15450;DHT22;7826;49.784;9.934;2023-07-08T01:10:03;17.70;99.90
15450;DHT22;7826;49.784;9.934;2023-07-08T01:12:34;17.70;99.90
15450;DHT22;7826;49.784;9.934;2023-07-08T01:15:05;17.70;99.90
15450;DHT22;7826;49.784;9.934;2023-07-08T01:17:32;17.70;99.90
15450;DHT22;7826;49.784;9.934;2023-07-08T01:20:04;17.70;99.90
15450;DHT22;7826;49.784;9.934;2023-07-08T01:22:40;17.60;99.90
15450;DHT22;7826;49.784;9.934;2023-07-08T01:25:07;17.60;99.90
15450;DHT22;7826;49.784;9.934;2023-07-08T01:27:37;17.60;99.90
15450;DHT22;7826;49.784;9.934;2023-07-08T01:30:05;17.50;99.90
15450;DHT22;7826;49.784;9.934;2023-07-08T01:32:34;17.50;1.00
15450;DHT22;7826;49.784;9.934;2023-07-08T01:35:05;17.40;1.00
15450;DHT22;7826;49.784;9.934;2023-07-08T01:37:48;17.40;1.00
15450;DHT22;7826;49.784;9.934;2023-07-08T01:40:16;17.30;1.00
15450;DHT22;7826;49.784;9.934;2023-07-08T01:42:43;17.30;1.00
15450;DHT22;7826;49.784;9.934;2023-07-08T01:45:14;17.30;1.00
15450;DHT22;7826;49.784;9.934;2023-07-08T01:47:42;17.20;99.90
15450;DHT22;7826;49.784;9.934;2023-07-08T01:50:11;17.20;1.00
15450;DHT22;7826;49.784;9.934;2023-07-08T01:52:38;17.20;99.90
15450;DHT22;7826;49.784;9.934;2023-07-08T01:55:05;17.20;1.00
15450;DHT22;7826;49.784;9.934;2023-07-08T01:57:32;17.20;99.90
15450;DHT22;7826;49.784;9.934;2023-07-08T01:59:59;17.20;99.90
15450;DHT22;7826;49.784;9.934;2023-07-08T02:02:31;17.20;1.00
15450;DHT22;7826;49.784;9.934;2023-07-08T02:04:58;17.20;1.00
15450;DHT22;7826;49.784;9.934;2023-07-08T02:07:24;17.10;1.00
15450;DHT22;7826;49.784;9.934;2023-07-08T02:09:51;17.10;1.00
15450;DHT22;7826;49.784;9.934;2023-07-08T02:12:17;17.10;99.90
15450;DHT22;7826;49.784;9.934;2023-07-08T02:14:44;17.10;99.90
15450;DHT22;7826;49.784;9.934;2023-07-08T02:17:10;17.20;99.90
15450;DHT22;7826;49.784;9.934;2023-07-08T02:19:37;17.10;41.80
15450;DHT22;7826;49.784;9.934;2023-07-08T02:22:03;17.10;37.50
15450;DHT22;7826;49.784;9.934;2023-07-08T02:24:30;17.10;7.40
15450;DHT22;7826;49.784;9.934;2023-07-08T02:26:57;17.00;14.20
15450;DHT22;7826;49.784;9.934;2023-07-08T02:29:23;17.00;99.90
15450;DHT22;7826;49.784;9.934;2023-07-08T02:31:50;16.90;99.90
15450;DHT22;7826;49.784;9.934;2023-07-08T02:34:16;16.90;99.90
15450;DHT22;7826;49.784;9.934;2023-07-08T02:36:43;16.90;1.00
15450;DHT22;7826;49.784;9.934;2023-07-08T02:39:10;16.90;1.00
15450;DHT22;7826;49.784;9.934;2023-07-08T02:41:37;16.90;99.90
15450;DHT22;7826;49.784;9.934;2023-07-08T02:44:04;16.90;99.90
15450;DHT22;7826;49.784;9.934;2023-07-08T02:46:31;16.90;99.90
15450;DHT22;7826;49.784;9.934;2023-07-08T02:48:57;16.90;99.90
15450;DHT22;7826;49.784;9.934;2023-07-08T02:51:23;16.80;99.90
15450;DHT22;7826;49.784;9.934;2023-07-08T02:53:50;16.80;1.00
15450;DHT22;7826;49.784;9.934;2023-07-08T02:56:16;16.80;99.90
15450;DHT22;7826;49.784;9.934;2023-07-08T02:58:43;16.80;99.90
15450;DHT22;7826;49.784;9.934;2023-07-08T03:01:09;16.70;99.90
15450;DHT22;7826;49.784;9.934;2023-07-08T03:03:36;16.70;99.90
15450;DHT22;7826;49.784;9.934;2023-07-08T03:06:04;16.70;99.90
15450;DHT22;7826;49.784;9.934;2023-07-08T03:08:31;16.70;99.90
15450;DHT22;7826;49.784;9.934;2023-07-08T03:11:00;16.60;99.90
15450;DHT22;7826;49.784;9.934;2023-07-08T03:13:27;16.60;99.90
15450;DHT22;7826;49.784;9.934;2023-07-08T03:15:54;16.60;99.90
15450;DHT22;7826;49.784;9.934;2023-07-08T03:18:23;16.50;99.90
15450;DHT22;7826;49.784;9.934;2023-07-08T03:20:50;16.50;99.90
15450;DHT22;7826;49.784;9.934;2023-07-08T03:23:16;16.50;1.00
15450;DHT22;7826;49.784;9.934;2023-07-08T03:25:43;16.50;1.00
15450;DHT22;7826;49.784;9.934;2023-07-08T03:28:09;16.40;99.90
15450;DHT22;7826;49.784;9.934;2023-07-08T03:30:41;16.40;99.90
15450;DHT22;7826;49.784;9.934;2023-07-08T03:33:09;16.40;1.00
15450;DHT22;7826;49.784;9.934;2023-07-08T03:35:36;16.40;99.90
15450;DHT22;7826;49.784;9.934;2023-07-08T03:38:03;16.40;1.00
15450;DHT22;7826;49.784;9.934;2023-07-08T03:40:30;16.40;99.90
15450;DHT22;7826;49.784;9.934;2023-07-08T03:42:57;16.40;99.90
15450;DHT22;7826;49.784;9.934;2023-07-08T03:45:24;16.50;99.90
15450;DHT22;7826;49.784;9.934;2023-07-08T03:47:51;16.50;1.00
15450;DHT22;7826;49.784;9.934;2023-07-08T03:50:22;16.50;99.90
15450;DHT22;7826;49.784;9.934;2023-07-08T03:52:51;16.50;1.00
15450;DHT22;7826;49.784;9.934;2023-07-08T03:55:18;16.50;99.90
15450;DHT22;7826;49.784;9.934;2023-07-08T03:57:45;16.50;99.90
15450;DHT22;7826;49.784;9.934;2023-07-08T04:00:12;16.50;99.90
15450;DHT22;7826;49.784;9.934;2023-07-08T04:02:39;16.50;99.90
15450;DHT22;7826;49.784;9.934;2023-07-08T04:05:06;16.50;99.90
15450;DHT22;7826;49.784;9.934;2023-07-08T04:07:34;16.50;1.00
15450;DHT22;7826;49.784;9.934;2023-07-08T04:10:00;16.50;1.00
15450;DHT22;7826;49.784;9.934;2023-07-08T04:12:27;16.60;99.90
15450;DHT22;7826;49.784;9.934;2023-07-08T04:14:53;16.60;1.00
15450;DHT22;7826;49.784;9.934;2023-07-08T04:17:20;16.60;1.00
15450;DHT22;7826;49.784;9.934;2023-07-08T04:19:50;16.60;12.70
15450;DHT22;7826;49.784;9.934;2023-07-08T04:22:16;16.70;99.90
15450;DHT22;7826;49.784;9.934;2023-07-08T04:24:44;16.70;1.00
15450;DHT22;7826;49.784;9.934;2023-07-08T04:27:15;16.70;1.00
15450;DHT22;7826;49.784;9.934;2023-07-08T04:29:43;16.70;1.00
15450;DHT22;7826;49.784;9.934;2023-07-08T04:32:10;16.80;1.00
15450;DHT22;7826;49.784;9.934;2023-07-08T04:34:37;16.80;99.90
15450;DHT22;7826;49.784;9.934;2023-07-08T04:37:04;16.80;1.00
15450;DHT22;7826;49.784;9.934;2023-07-08T04:39:33;16.80;3.30
15450;DHT22;7826;49.784;9.934;2023-07-08T04:41:59;16.80;1.00
15450;DHT22;7826;49.784;9.934;2023-07-08T04:44:25;16.80;99.90
15450;DHT22;7826;49.784;9.934;2023-07-08T04:46:56;16.90;1.00
15450;DHT22;7826;49.784;9.934;2023-07-08T04:49:23;17.00;1.00
15450;DHT22;7826;49.784;9.934;2023-07-08T04:51:51;17.10;26.00
15450;DHT22;7826;49.784;9.934;2023-07-08T04:54:18;17.10;1.00
15450;DHT22;7826;49.784;9.934;2023-07-08T04:56:47;17.20;66.80
15450;DHT22;7826;49.784;9.934;2023-07-08T04:59:17;17.20;99.90
15450;DHT22;7826;49.784;9.934;2023-07-08T05:01:44;17.30;1.00
15450;DHT22;7826;49.784;9.934;2023-07-08T05:04:15;17.40;1.00
15450;DHT22;7826;49.784;9.934;2023-07-08T05:06:42;17.40;1.00
15450;DHT22;7826;49.784;9.934;2023-07-08T05:09:09;17.50;1.00
15450;DHT22;7826;49.784;9.934;2023-07-08T05:11:35;17.60;1.00
15450;DHT22;7826;49.784;9.934;2023-07-08T05:14:03;17.70;1.00
15450;DHT22;7826;49.784;9.934;2023-07-08T05:16:34;17.80;94.50
15450;DHT22;7826;49.784;9.934;2023-07-08T05:19:02;17.90;99.90
15450;DHT22;7826;49.784;9.934;2023-07-08T05:21:30;17.90;1.00
15450;DHT22;7826;49.784;9.934;2023-07-08T05:24:03;18.10;1.00
15450;DHT22;7826;49.784;9.934;2023-07-08T05:26:31;18.10;1.00
15450;DHT22;7826;49.784;9.934;2023-07-08T05:28:58;18.20;1.00
15450;DHT22;7826;49.784;9.934;2023-07-08T05:31:24;18.40;99.90
15450;DHT22;7826;49.784;9.934;2023-07-08T05:33:51;18.40;47.70
15450;DHT22;7826;49.784;9.934;2023-07-08T05:36:17;18.50;99.90
15450;DHT22;7826;49.784;9.934;2023-07-08T05:38:44;18.70;1.00
15450;DHT22;7826;49.784;9.934;2023-07-08T05:41:10;18.80;1.00
15450;DHT22;7826;49.784;9.934;2023-07-08T05:43:38;18.90;1.00
15450;DHT22;7826;49.784;9.934;2023-07-08T05:46:04;19.00;1.00
15450;DHT22;7826;49.784;9.934;2023-07-08T05:48:31;19.20;99.90
15450;DHT22;7826;49.784;9.934;2023-07-08T05:50:57;19.30;99.90
15450;DHT22;7826;49.784;9.934;2023-07-08T05:53:24;19.40;1.00
15450;DHT22;7826;49.784;9.934;2023-07-08T05:55:50;19.60;99.90
15450;DHT22;7826;49.784;9.934;2023-07-08T05:58:17;19.70;1.00
15450;DHT22;7826;49.784;9.934;2023-07-08T06:00:44;19.90;1.00
15450;DHT22;7826;49.784;9.934;2023-07-08T06:03:11;20.00;1.00
15450;DHT22;7826;49.784;9.934;2023-07-08T06:05:37;20.10;1.00
15450;DHT22;7826;49.784;9.934;2023-07-08T06:08:05;20.20;1.00
15450;DHT22;7826;49.784;9.934;2023-07-08T06:10:32;20.30;1.00
15450;DHT22;7826;49.784;9.934;2023-07-08T06:12:59;20.50;99.90
15450;DHT22;7826;49.784;9.934;2023-07-08T06:15:25;20.60;99.90
15450;DHT22;7826;49.784;9.934;2023-07-08T06:17:51;20.80;99.90
15450;DHT22;7826;49.784;9.934;2023-07-08T06:20:18;21.00;99.90
15450;DHT22;7826;49.784;9.934;2023-07-08T06:22:44;21.10;99.90
15450;DHT22;7826;49.784;9.934;2023-07-08T06:25:11;21.20;99.90
15450;DHT22;7826;49.784;9.934;2023-07-08T06:27:37;21.40;99.90
15450;DHT22;7826;49.784;9.934;2023-07-08T06:30:04;21.60;10.60
15450;DHT22;7826;49.784;9.934;2023-07-08T06:32:31;21.70;1.00
15450;DHT22;7826;49.784;9.934;2023-07-08T06:34:57;21.80;1.00
15450;DHT22;7826;49.784;9.934;2023-07-08T06:37:24;22.10;1.00
15450;DHT22;7826;49.784;9.934;2023-07-08T06:39:50;22.30;1.00
15450;DHT22;7826;49.784;9.934;2023-07-08T06:42:17;22.40;1.00
15450;DHT22;7826;49.784;9.934;2023-07-08T06:44:43;22.50;1.00
15450;DHT22;7826;49.784;9.934;2023-07-08T06:47:20;22.80;1.00
15450;DHT22;7826;49.784;9.934;2023-07-08T06:49:47;23.00;1.00
15450;DHT22;7826;49.784;9.934;2023-07-08T06:52:14;23.30;1.00
15450;DHT22;7826;49.784;9.934;2023-07-08T06:54:41;23.50;1.00
15450;DHT22;7826;49.784;9.934;2023-07-08T06:57:08;23.70;1.00
15450;DHT22;7826;49.784;9.934;2023-07-08T06:59:35;23.90;1.00
15450;DHT22;7826;49.784;9.934;2023-07-08T07:02:01;24.30;99.90
15450;DHT22;7826;49.784;9.934;2023-07-08T07:04:28;24.30;99.90
15450;DHT22;7826;49.784;9.934;2023-07-08T07:06:54;24.10;99.90
15450;DHT22;7826;49.784;9.934;2023-07-08T07:09:21;24.30;99.90
15450;DHT22;7826;49.784;9.934;2023-07-08T07:11:47;24.40;99.90
15450;DHT22;7826;49.784;9.934;2023-07-08T07:14:14;24.40;99.90
15450;DHT22;7826;49.784;9.934;2023-07-08T07:16:40;24.60;99.90
15450;DHT22;7826;49.784;9.934;2023-07-08T07:19:08;24.50;99.90
15450;DHT22;7826;49.784;9.934;2023-07-08T07:21:34;24.50;99.90
15450;DHT22;7826;49.784;9.934;2023-07-08T07:24:01;24.70;99.90
15450;DHT22;7826;49.784;9.934;2023-07-08T07:26:27;24.80;99.90
15450;DHT22;7826;49.784;9.934;2023-07-08T07:28:53;24.70;99.90
15450;DHT22;7826;49.784;9.934;2023-07-08T07:31:20;24.90;99.90
15450;DHT22;7826;49.784;9.934;2023-07-08T07:33:46;25.10;99.90
15450;DHT22;7826;49.784;9.934;2023-07-08T07:36:13;25.20;99.90
15450;DHT22;7826;49.784;9.934;2023-07-08T07:38:40;25.30;99.90
15450;DHT22;7826;49.784;9.934;2023-07-08T07:41:06;25.60;99.90
15450;DHT22;7826;49.784;9.934;2023-07-08T07:43:36;25.60;99.90
15450;DHT22;7826;49.784;9.934;2023-07-08T07:46:02;25.80;99.90
15450;DHT22;7826;49.784;9.934;2023-07-08T07:48:32;25.90;99.90
15450;DHT22;7826;49.784;9.934;2023-07-08T07:50:58;26.00;99.90
15450;DHT22;7826;49.784;9.934;2023-07-08T07:53:25;26.40;99.90
15450;DHT22;7826;49.784;9.934;2023-07-08T07:55:59;27.00;99.90
15450;DHT22;7826;49.784;9.934;2023-07-08T07:58:26;27.20;99.90
15450;DHT22;7826;49.784;9.934;2023-07-08T08:00:53;26.90;99.90
15450;DHT22;7826;49.784;9.934;2023-07-08T08:03:20;27.00;99.90
15450;DHT22;7826;49.784;9.934;2023-07-08T08:05:48;27.00;99.90
15450;DHT22;7826;49.784;9.934;2023-07-08T08:08:15;27.40;99.90
15450;DHT22;7826;49.784;9.934;2023-07-08T08:10:43;27.30;60.00
15450;DHT22;7826;49.784;9.934;2023-07-08T08:13:09;27.00;29.00
15450;DHT22;7826;49.784;9.934;2023-07-08T08:15:36;27.00;24.30
15450;DHT22;7826;49.784;9.934;2023-07-08T08:18:04;27.30;6.50
15450;DHT22;7826;49.784;9.934;2023-07-08T08:20:30;27.80;7.00
15450;DHT22;7826;49.784;9.934;2023-07-08T08:22:56;28.00;1.00
15450;DHT22;7826;49.784;9.934;2023-07-08T08:25:24;28.20;1.00
15450;DHT22;7826;49.784;9.934;2023-07-08T08:27:51;28.10;1.00
15450;DHT22;7826;49.784;9.934;2023-07-08T08:30:19;28.60;1.00
15450;DHT22;7826;49.784;9.934;2023-07-08T08:32:45;28.40;1.00
15450;DHT22;7826;49.784;9.934;2023-07-08T08:35:12;28.50;1.00
15450;DHT22;7826;49.784;9.934;2023-07-08T08:37:38;28.40;1.00
15450;DHT22;7826;49.784;9.934;2023-07-08T08:40:05;28.40;1.00
15450;DHT22;7826;49.784;9.934;2023-07-08T08:45:00;29.00;1.00
15450;DHT22;7826;49.784;9.934;2023-07-08T08:47:38;29.20;1.00
15450;DHT22;7826;49.784;9.934;2023-07-08T08:53:01;29.70;1.00
15450;DHT22;7826;49.784;9.934;2023-07-08T08:55:28;29.90;1.00
15450;DHT22;7826;49.784;9.934;2023-07-08T09:00:46;29.80;1.00
15450;DHT22;7826;49.784;9.934;2023-07-08T09:03:30;29.90;1.00
15450;DHT22;7826;49.784;9.934;2023-07-08T09:05:59;30.20;1.00
15450;DHT22;7826;49.784;9.934;2023-07-08T09:08:32;30.50;1.00
15450;DHT22;7826;49.784;9.934;2023-07-08T09:11:17;30.60;1.00
15450;DHT22;7826;49.784;9.934;2023-07-08T09:13:46;30.60;1.00
15450;DHT22;7826;49.784;9.934;2023-07-08T09:19:00;30.40;1.00
15450;DHT22;7826;49.784;9.934;2023-07-08T09:21:33;30.60;1.00
15450;DHT22;7826;49.784;9.934;2023-07-08T09:24:09;30.80;1.00
15450;DHT22;7826;49.784;9.934;2023-07-08T09:26:38;30.90;1.00
15450;DHT22;7826;49.784;9.934;2023-07-08T09:29:09;31.10;1.00
15450;DHT22;7826;49.784;9.934;2023-07-08T09:31:39;31.20;1.00
15450;DHT22;7826;49.784;9.934;2023-07-08T09:34:19;31.10;1.00
15450;DHT22;7826;49.784;9.934;2023-07-08T09:36:47;31.20;1.00
15450;DHT22;7826;49.784;9.934;2023-07-08T09:39:17;31.50;1.00
15450;DHT22;7826;49.784;9.934;2023-07-08T09:41:47;31.40;1.00
15450;DHT22;7826;49.784;9.934;2023-07-08T09:46:43;31.20;1.00
15450;DHT22;7826;49.784;9.934;2023-07-08T09:49:20;31.30;1.00
15450;DHT22;7826;49.784;9.934;2023-07-08T09:51:46;31.10;1.00
15450;DHT22;7826;49.784;9.934;2023-07-08T09:54:16;31.10;1.00
15450;DHT22;7826;49.784;9.934;2023-07-08T09:56:44;31.20;1.00
15450;DHT22;7826;49.784;9.934;2023-07-08T09:59:15;31.70;1.00
15450;DHT22;7826;49.784;9.934;2023-07-08T10:01:42;31.40;1.00
15450;DHT22;7826;49.784;9.934;2023-07-08T10:04:09;31.70;1.00
15450;DHT22;7826;49.784;9.934;2023-07-08T10:06:37;31.80;1.00
15450;DHT22;7826;49.784;9.934;2023-07-08T10:09:11;32.10;1.00
15450;DHT22;7826;49.784;9.934;2023-07-08T10:11:44;32.20;1.00
15450;DHT22;7826;49.784;9.934;2023-07-08T10:16:44;32.00;1.00
15450;DHT22;7826;49.784;9.934;2023-07-08T10:19:17;32.40;1.00
15450;DHT22;7826;49.784;9.934;2023-07-08T10:27:51;31.90;1.00
15450;DHT22;7826;49.784;9.934;2023-07-08T10:30:26;31.60;1.00
15450;DHT22;7826;49.784;9.934;2023-07-08T10:33:03;31.80;1.00
15450;DHT22;7826;49.784;9.934;2023-07-08T10:36:13;31.60;1.00
15450;DHT22;7826;49.784;9.934;2023-07-08T10:39:16;31.40;1.00
15450;DHT22;7826;49.784;9.934;2023-07-08T10:44:28;32.40;1.00
15450;DHT22;7826;49.784;9.934;2023-07-08T10:47:21;32.70;1.00
15450;DHT22;7826;49.784;9.934;2023-07-08T10:52:55;32.30;1.00
15450;DHT22;7826;49.784;9.934;2023-07-08T11:01:28;32.70;1.00
15450;DHT22;7826;49.784;9.934;2023-07-08T11:06:52;33.30;1.00
15450;DHT22;7826;49.784;9.934;2023-07-08T11:09:35;33.30;1.00
15450;DHT22;7826;49.784;9.934;2023-07-08T11:21:08;33.20;1.00
15450;DHT22;7826;49.784;9.934;2023-07-08T11:26:23;33.70;1.00
15450;DHT22;7826;49.784;9.934;2023-07-08T11:28:55;34.10;1.00
15450;DHT22;7826;49.784;9.934;2023-07-08T11:31:23;33.90;1.00
15450;DHT22;7826;49.784;9.934;2023-07-08T11:33:52;33.00;1.00
15450;DHT22;7826;49.784;9.934;2023-07-08T11:36:21;33.00;1.00
15450;DHT22;7826;49.784;9.934;2023-07-08T11:38:50;33.50;1.00
15450;DHT22;7826;49.784;9.934;2023-07-08T11:41:20;33.80;1.00
15450;DHT22;7826;49.784;9.934;2023-07-08T11:43:52;33.50;1.00
15450;DHT22;7826;49.784;9.934;2023-07-08T11:46:22;33.50;1.00
15450;DHT22;7826;49.784;9.934;2023-07-08T11:48:53;33.50;1.00
15450;DHT22;7826;49.784;9.934;2023-07-08T11:51:23;33.40;1.00
15450;DHT22;7826;49.784;9.934;2023-07-08T11:54:40;33.60;1.00
15450;DHT22;7826;49.784;9.934;2023-07-08T11:57:00;33.20;1.00
15450;DHT22;7826;49.784;9.934;2023-07-08T11:59:37;32.50;1.00
15450;DHT22;7826;49.784;9.934;2023-07-08T12:07:28;33.60;1.00
15450;DHT22;7826;49.784;9.934;2023-07-08T12:10:09;33.90;1.00
15450;DHT22;7826;49.784;9.934;2023-07-08T12:12:38;34.30;1.00
15450;DHT22;7826;49.784;9.934;2023-07-08T12:15:20;34.10;1.00
15450;DHT22;7826;49.784;9.934;2023-07-08T12:17:47;34.00;1.00
15450;DHT22;7826;49.784;9.934;2023-07-08T12:20:30;34.20;1.00
15450;DHT22;7826;49.784;9.934;2023-07-08T12:22:57;34.20;1.00
15450;DHT22;7826;49.784;9.934;2023-07-08T12:25:29;34.30;1.00
15450;DHT22;7826;49.784;9.934;2023-07-08T12:27:57;33.80;1.00
15450;DHT22;7826;49.784;9.934;2023-07-08T12:30:23;33.90;1.00
15450;DHT22;7826;49.784;9.934;2023-07-08T12:32:51;33.90;1.00
15450;DHT22;7826;49.784;9.934;2023-07-08T12:35:30;33.70;1.00
15450;DHT22;7826;49.784;9.934;2023-07-08T12:38:20;34.10;1.00
15450;DHT22;7826;49.784;9.934;2023-07-08T12:40:48;34.10;1.00
15450;DHT22;7826;49.784;9.934;2023-07-08T12:43:15;34.20;1.00
15450;DHT22;7826;49.784;9.934;2023-07-08T12:45:44;34.00;1.00
15450;DHT22;7826;49.784;9.934;2023-07-08T12:48:10;34.00;1.00
15450;DHT22;7826;49.784;9.934;2023-07-08T12:50:37;33.90;1.00
15450;DHT22;7826;49.784;9.934;2023-07-08T12:53:06;34.20;1.00
15450;DHT22;7826;49.784;9.934;2023-07-08T12:55:40;34.10;1.00
15450;DHT22;7826;49.784;9.934;2023-07-08T12:58:13;34.10;1.00
15450;DHT22;7826;49.784;9.934;2023-07-08T13:00:40;34.10;1.00
15450;DHT22;7826;49.784;9.934;2023-07-08T13:03:17;34.30;1.00
15450;DHT22;7826;49.784;9.934;2023-07-08T13:05:45;34.40;1.00
15450;DHT22;7826;49.784;9.934;2023-07-08T13:08:16;33.80;1.00
15450;DHT22;7826;49.784;9.934;2023-07-08T13:10:44;34.00;1.00
15450;DHT22;7826;49.784;9.934;2023-07-08T13:13:24;33.80;1.00
15450;DHT22;7826;49.784;9.934;2023-07-08T13:15:51;34.10;1.00
15450;DHT22;7826;49.784;9.934;2023-07-08T13:18:20;34.20;1.00
15450;DHT22;7826;49.784;9.934;2023-07-08T13:20:52;34.40;1.00
15450;DHT22;7826;49.784;9.934;2023-07-08T13:23:23;34.60;1.00
15450;DHT22;7826;49.784;9.934;2023-07-08T13:25:51;33.70;1.00
15450;DHT22;7826;49.784;9.934;2023-07-08T13:30:52;33.90;1.00
15450;DHT22;7826;49.784;9.934;2023-07-08T13:33:19;33.90;1.00
15450;DHT22;7826;49.784;9.934;2023-07-08T13:35:46;34.00;1.00
15450;DHT22;7826;49.784;9.934;2023-07-08T13:38:19;33.60;1.00
15450;DHT22;7826;49.784;9.934;2023-07-08T13:40:54;33.80;1.00
15450;DHT22;7826;49.784;9.934;2023-07-08T13:43:26;33.70;1.00
15450;DHT22;7826;49.784;9.934;2023-07-08T13:45:52;33.80;1.00
15450;DHT22;7826;49.784;9.934;2023-07-08T13:48:33;33.70;1.00
15450;DHT22;7826;49.784;9.934;2023-07-08T13:51:16;34.00;1.00
15450;DHT22;7826;49.784;9.934;2023-07-08T13:53:52;33.90;1.00
15450;DHT22;7826;49.784;9.934;2023-07-08T13:58:48;34.20;1.00
15450;DHT22;7826;49.784;9.934;2023-07-08T14:01:37;34.40;1.00
15450;DHT22;7826;49.784;9.934;2023-07-08T14:04:04;34.40;1.00
15450;DHT22;7826;49.784;9.934;2023-07-08T14:06:36;34.10;1.00
15450;DHT22;7826;49.784;9.934;2023-07-08T14:09:16;34.20;1.00
15450;DHT22;7826;49.784;9.934;2023-07-08T14:11:43;34.20;1.00
15450;DHT22;7826;49.784;9.934;2023-07-08T14:14:10;34.10;1.00
15450;DHT22;7826;49.784;9.934;2023-07-08T14:16:46;33.90;1.00
15450;DHT22;7826;49.784;9.934;2023-07-08T14:19:29;34.10;1.00
15450;DHT22;7826;49.784;9.934;2023-07-08T14:21:59;33.70;1.00
15450;DHT22;7826;49.784;9.934;2023-07-08T14:24:25;33.90;1.00
15450;DHT22;7826;49.784;9.934;2023-07-08T14:26:53;34.10;1.00
15450;DHT22;7826;49.784;9.934;2023-07-08T14:29:20;33.90;7.90
15450;DHT22;7826;49.784;9.934;2023-07-08T14:31:46;34.10;18.60
15450;DHT22;7826;49.784;9.934;2023-07-08T14:34:20;34.30;1.00
15450;DHT22;7826;49.784;9.934;2023-07-08T14:36:48;34.20;3.40
15450;DHT22;7826;49.784;9.934;2023-07-08T14:39:16;34.10;12.10
15450;DHT22;7826;49.784;9.934;2023-07-08T14:41:44;33.70;1.00
15450;DHT22;7826;49.784;9.934;2023-07-08T14:46:47;33.70;1.00
15450;DHT22;7826;49.784;9.934;2023-07-08T14:49:19;33.30;1.00
15450;DHT22;7826;49.784;9.934;2023-07-08T14:51:46;33.30;1.00
15450;DHT22;7826;49.784;9.934;2023-07-08T14:54:13;33.40;1.00
15450;DHT22;7826;49.784;9.934;2023-07-08T14:56:41;33.50;99.90
15450;DHT22;7826;49.784;9.934;2023-07-08T14:59:34;33.60;99.90
15450;DHT22;7826;49.784;9.934;2023-07-08T15:02:13;33.80;99.90
15450;DHT22;7826;49.784;9.934;2023-07-08T15:04:41;33.50;99.90
15450;DHT22;7826;49.784;9.934;2023-07-08T15:07:09;33.30;99.90
15450;DHT22;7826;49.784;9.934;2023-07-08T15:09:35;33.20;99.90
15450;DHT22;7826;49.784;9.934;2023-07-08T15:12:02;33.10;99.90
15450;DHT22;7826;49.784;9.934;2023-07-08T15:14:28;32.80;99.90
15450;DHT22;7826;49.784;9.934;2023-07-08T15:16:55;33.10;99.90
15450;DHT22;7826;49.784;9.934;2023-07-08T15:19:22;32.90;99.90
15450;DHT22;7826;49.784;9.934;2023-07-08T15:21:50;33.00;99.90
15450;DHT22;7826;49.784;9.934;2023-07-08T15:24:16;32.60;99.90
15450;DHT22;7826;49.784;9.934;2023-07-08T15:26:45;32.50;99.90
15450;DHT22;7826;49.784;9.934;2023-07-08T15:29:19;32.40;99.90
15450;DHT22;7826;49.784;9.934;2023-07-08T15:31:45;32.30;99.90
15450;DHT22;7826;49.784;9.934;2023-07-08T15:34:20;31.70;99.90
15450;DHT22;7826;49.784;9.934;2023-07-08T15:36:47;31.30;99.90
15450;DHT22;7826;49.784;9.934;2023-07-08T15:39:14;31.20;99.90
15450;DHT22;7826;49.784;9.934;2023-07-08T15:41:42;31.20;99.90
15450;DHT22;7826;49.784;9.934;2023-07-08T15:44:10;31.10;99.90
15450;DHT22;7826;49.784;9.934;2023-07-08T15:46:45;31.00;99.90
15450;DHT22;7826;49.784;9.934;2023-07-08T15:49:17;31.10;99.90
15450;DHT22;7826;49.784;9.934;2023-07-08T15:51:44;31.10;99.90
15450;DHT22;7826;49.784;9.934;2023-07-08T15:54:11;31.00;99.90
15450;DHT22;7826;49.784;9.934;2023-07-08T15:56:39;30.90;99.90
15450;DHT22;7826;49.784;9.934;2023-07-08T15:59:12;30.90;99.90
15450;DHT22;7826;49.784;9.934;2023-07-08T16:01:40;30.80;99.90
15450;DHT22;7826;49.784;9.934;2023-07-08T16:04:21;30.60;1.00
15450;DHT22;7826;49.784;9.934;2023-07-08T16:06:49;30.60;1.00
15450;DHT22;7826;49.784;9.934;2023-07-08T16:09:15;30.60;1.00
15450;DHT22;7826;49.784;9.934;2023-07-08T16:11:42;30.60;1.00
15450;DHT22;7826;49.784;9.934;2023-07-08T16:14:13;30.40;1.00
15450;DHT22;7826;49.784;9.934;2023-07-08T16:16:40;30.40;1.00
15450;DHT22;7826;49.784;9.934;2023-07-08T16:19:11;30.50;1.00
15450;DHT22;7826;49.784;9.934;2023-07-08T16:21:39;30.50;1.00
15450;DHT22;7826;49.784;9.934;2023-07-08T16:24:06;30.40;1.00
15450;DHT22;7826;49.784;9.934;2023-07-08T16:26:33;30.40;1.00
15450;DHT22;7826;49.784;9.934;2023-07-08T16:28:59;30.50;1.00
15450;DHT22;7826;49.784;9.934;2023-07-08T16:31:26;30.30;1.00
15450;DHT22;7826;49.784;9.934;2023-07-08T16:33:54;30.30;1.00
15450;DHT22;7826;49.784;9.934;2023-07-08T16:36:24;30.30;1.00
15450;DHT22;7826;49.784;9.934;2023-07-08T16:38:51;30.20;1.00
15450;DHT22;7826;49.784;9.934;2023-07-08T16:41:20;30.20;1.00
15450;DHT22;7826;49.784;9.934;2023-07-08T16:43:48;30.10;1.00
15450;DHT22;7826;49.784;9.934;2023-07-08T16:46:17;30.00;1.00
15450;DHT22;7826;49.784;9.934;2023-07-08T16:48:43;30.00;1.00
15450;DHT22;7826;49.784;9.934;2023-07-08T16:51:14;29.90;1.00
15450;DHT22;7826;49.784;9.934;2023-07-08T16:53:43;29.90;1.00
15450;DHT22;7826;49.784;9.934;2023-07-08T16:56:17;29.90;1.00
15450;DHT22;7826;49.784;9.934;2023-07-08T16:58:44;29.80;1.00
15450;DHT22;7826;49.784;9.934;2023-07-08T17:01:21;29.70;1.00
15450;DHT22;7826;49.784;9.934;2023-07-08T17:03:50;29.70;1.00
15450;DHT22;7826;49.784;9.934;2023-07-08T17:06:18;29.70;1.00
15450;DHT22;7826;49.784;9.934;2023-07-08T17:08:45;29.60;1.00
15450;DHT22;7826;49.784;9.934;2023-07-08T17:11:12;29.50;1.00
15450;DHT22;7826;49.784;9.934;2023-07-08T17:13:38;29.40;1.00
15450;DHT22;7826;49.784;9.934;2023-07-08T17:16:08;29.40;1.00